Flight Track Log - Related Links

Times and Time Zones

All times are in EDT time to prevent confusion due to time zone crossing. See the N783FM flight status page for this flight to view local times or setup timezone preferences in your user account.

Time Position Orientation Groundspeed Altitude Reporting Facility
EDT Latitude Longitude Course Direction KTS MPH feet Rate Location/Type
Mon 05:25:47 PM 41.5356 -71.2503 173° South 87 100 2,300  Level Boston Center
Mon 05:26:17 PM 41.5208 -71.2478 173° South 90 104 2,600 592 Climbing Boston Center
Mon 05:28:19 PM 41.5339 -71.3031 288° West 90 104 3,800 289 Climbing Boston Center
Mon 05:30:00 PM 41.5335 -71.3712 270° West  Level FlightAware Approximate
Mon 05:30:26 PM 41.5011 -71.3619 270° West 105 121 3,800  Level Boston Center
Mon 05:31:27 PM 41.5142 -71.4006 294° West 107 123 3,800  Level Boston Center
Mon 05:33:00 PM 41.5365 -71.4625 288° West  Level FlightAware Approximate
Mon 05:34:22 PM 41.5608 -71.5133 288° West 117 135 3,800  Level Boston Center
Mon 05:35:23 PM 41.5778 -71.5492 302° West 115 132 3,800 68 Level Boston Center
Mon 05:37:18 PM 41.6033 -71.6183 296° West 112 129 4,000 239 Climbing Boston Center
Mon 05:38:19 PM 41.6036 -71.6572 271° West 99 114 4,500 560 Climbing Boston Center
Mon 05:40:00 PM 41.6032 -71.7255 270° West  Level FlightAware Approximate
Mon 05:40:20 PM 41.6186 -71.7181 270° West 88 101 5,700  Level Boston Center
Mon 05:41:21 PM 41.6147 -71.7542 262° West 99 114 5,900 52 Climbing Boston Center
Mon 05:42:15 PM 41.6150 -71.7931 271° West 113 130 5,800  Descending Boston Center
Mon 05:43:22 PM 41.6153 -71.8375 270° West 108 124 5,900  Climbing Boston Center
Mon 05:45:00 PM 41.6121 -71.9036 266° West  Level FlightAware Approximate
Mon 05:45:58 PM 41.6219 -71.9431 266° West 110 127 5,800  Level Boston Center
Mon 05:48:12 PM 41.6222 -72.0319 270° West 107 123 5,900 20 Climbing Boston Center
Mon 05:50:00 PM 41.6089 -72.1027 256° West  Level FlightAware Approximate
Mon 05:50:56 PM 41.6225 -72.1403 256° West 111 128 5,900  Level Boston Center
Mon 05:51:56 PM 41.6269 -72.1819 278° West 111 128 5,800  Descending Boston Center
Mon 05:52:57 PM 41.6292 -72.2206 274° West 106 122 5,900 34 Climbing Boston Center
Mon 05:54:00 PM 41.6298 -72.2631 271° West  Level FlightAware Approximate
Mon 05:54:52 PM 41.6333 -72.2983 271° West 108 124 5,900  Level Boston Center
Mon 05:55:53 PM 41.6333 -72.3372 270° West 106 122 5,800 -32 Descending Boston Center
Mon 05:57:00 PM 41.6334 -72.3825 270° West  Level FlightAware Approximate
Mon 05:58:00 PM 41.6333 -72.4206 270° West 105 121 5,800  Level Boston Center
Mon 05:59:01 PM 41.6356 -72.4594 274° West 105 121 5,800 -494 Level Boston Center
Mon 06:01:00 PM 41.6338 -72.5373 279° West  Level FlightAware Approximate
Mon 06:02:03 PM 41.6417 -72.5733 279° West 98 113 3,800  Level Boston Center
Mon 06:02:58 PM 41.6481 -72.6094 283° West 108 124 3,800 33 Level Boston Center
Mon 06:05:05 PM 41.6581 -72.6931 279° West 107 123 3,900  Climbing Boston Center
Mon 06:07:00 PM 41.6663 -72.7675 278° West  Level FlightAware Approximate
Mon 06:08:01 PM 41.6725 -72.8042 278° West 101 116 3,800  Level Boston Center
Mon 06:09:02 PM 41.6786 -72.8431 282° West 106 122 3,800 50 Level Boston Center
Mon 06:10:02 PM 41.6825 -72.8792 278° West 107 123 3,900  Climbing Boston Center
Mon 06:12:10 PM 41.6906 -72.9656 277° West 108 124 3,800 -31 Descending Boston Center
Mon 06:13:16 PM 41.6967 -73.0072 281° West 108 124 3,800 35 Level Boston Center
Mon 06:15:01 PM 41.7000 -73.0833 273° West 106 122 3,900 36 Climbing New York TRACON
Mon 06:16:01 PM 41.7167 -73.1167 304° West 110 127 3,900  Level New York TRACON
Mon 06:16:55 PM 41.7167 -73.1500 270° West 109 125 3,900 -50 Level New York TRACON
Mon 06:18:01 PM 41.7167 -73.2000 270° West 109 125 3,800 -32 Descending New York TRACON
Mon 06:20:01 PM 41.7000 -73.2667 252° West 107 123 3,800  Level New York TRACON
Mon 06:21:01 PM 41.6833 -73.3000 236° Southwest 106 122 3,800 26 Level New York TRACON
Mon 06:23:00 PM 41.6433 -73.3565 279° West  Level Estimated
Mon 06:23:55 PM 41.6667 -73.4167 279° West 108 124 3,900  Level New York TRACON
Mon 06:24:55 PM 41.6667 -73.4500 270° West 111 128 3,900  Level New York TRACON
Mon 06:26:00 PM 41.6879 -73.4817 312° West  Level FlightAware Approximate
Mon 06:27:55 PM 41.6333 -73.5667 240° Southwest 110 127 3,900  Level New York TRACON
Mon 06:29:00 PM 41.6208 -73.6056 247° West  Level FlightAware Approximate
Mon 06:30:55 PM 41.6167 -73.6833 247° West 108 124 3,800  Level New York TRACON
Mon 06:31:55 PM 41.6000 -73.7167 236° Southwest 110 127 3,800  Level New York TRACON
Mon 06:33:00 PM 41.7116 -73.7288 240° Southwest  Level FlightAware Approximate
Mon 06:33:01 PM 41.5833 -73.7667 246° West 108 124 3,800  Level New York TRACON
Mon 06:33:55 PM 41.5833 -73.8000 270° West 109 125 3,800  Level New York TRACON
Mon 06:34:55 PM 41.5833 -73.8333 270° West 111 128 3,800 48 Level New York TRACON
Mon 06:36:00 PM 41.5397 -73.8565 247° West  Level FlightAware Approximate
Mon 06:36:01 PM 41.5667 -73.8833 246° West 109 125 3,900  Level New York TRACON
Mon 06:38:01 PM 41.5500 -73.9667 255° West 112 129 3,800 -33 Descending New York TRACON
Mon 06:39:01 PM 41.5500 -74.0000 270° West 108 124 3,800  Level New York TRACON
Mon 06:40:01 PM 41.5333 -74.0333 236° Southwest 105 121 3,800  Level New York TRACON
Mon 06:41:01 PM 41.5167 -74.0667 236° Southwest 106 122 3,800  Level New York TRACON
Mon 06:42:01 PM 41.5167 -74.1000 270° West 109 125 3,800  Level New York TRACON
Mon 06:43:01 PM 41.5167 -74.1500 270° West 108 124 3,800  Level New York TRACON
Mon 06:44:01 PM 41.5000 -74.1833 236° Southwest 100 115 3,800  Level New York TRACON
Mon 06:45:01 PM 41.4833 -74.2167 236° Southwest 106 122 3,800 50 Level New York TRACON
Mon 06:46:01 PM 41.4833 -74.2500 270° West 105 121 3,900  Climbing New York TRACON
Mon 06:48:00 PM 41.4533 -74.3162 239° Southwest  Level FlightAware Approximate
Mon 06:49:01 PM 41.4667 -74.3667 239° Southwest 112 129 3,800  Level New York TRACON
Mon 06:50:01 PM 41.4500 -74.4000 236° Southwest 107 123 3,800  Level New York TRACON
Mon 06:51:01 PM 41.4333 -74.4500 246° West 110 127 3,800  Level New York TRACON
Mon 06:52:01 PM 41.4333 -74.4833 270° West 106 122 3,800  Level New York TRACON
Mon 06:54:01 PM 41.4167 -74.5500 252° West 105 121 3,800  Level New York TRACON
Mon 06:55:07 PM 41.4000 -74.6000 246° West 109 125 3,800 20 Level New York TRACON
Mon 06:57:00 PM 41.3605 -74.6505 224° Southwest  Level FlightAware Approximate
Mon 06:59:07 PM 41.4667 -74.6500 222° Southwest 124 143 3,900  Level New York TRACON
Mon 07:01:00 PM 41.4182 -74.6857 209° Southwest  Level FlightAware Approximate
Mon 07:03:07 PM 41.4500 -74.5333 209° Southwest 118 136 3,900  Level New York TRACON
Mon 07:04:00 PM 41.2134 -74.8373 222° Southwest  Level FlightAware Approximate
Mon 07:04:07 PM 41.4333 -74.5500 217° Southwest 108 124 3,900  Level New York TRACON
Mon 07:05:07 PM 41.4167 -74.5833 236° Southwest 104 120 3,900 -53 Level New York TRACON
Mon 07:06:01 PM 41.4000 -74.6167 236° Southwest 107 123 3,800 -50 Descending New York TRACON
Mon 07:07:07 PM 41.3667 -74.6333 201° Southwest 107 123 3,800  Level New York TRACON
Mon 07:08:00 PM 41.2379 -74.8178 209° Southwest  Level FlightAware Approximate
Mon 07:08:01 PM 41.3500 -74.6667 236° Southwest 108 124 3,800  Level New York TRACON
Mon 07:09:07 PM 41.3333 -74.7000 236° Southwest 106 122 3,900  Climbing New York TRACON
Mon 07:10:01 PM 41.3167 -74.7167 217° Southwest 108 124 3,800 -53 Descending New York TRACON
Mon 07:11:01 PM 41.2833 -74.7500 217° Southwest 107 123 3,800 50 Level New York TRACON
Mon 07:12:01 PM 41.2667 -74.7833 236° Southwest 104 120 3,900  Climbing New York TRACON
Mon 07:14:00 PM 41.2222 -74.8278 217° Southwest  Level FlightAware Approximate
Mon 07:21:00 PM 41.0759 -75.0023 222° Southwest  Level FlightAware Approximate
Mon 07:22:00 PM 41.0551 -75.0273 222° Southwest  Level FlightAware Approximate
Mon 07:23:00 PM 41.0346 -75.0527 224° Southwest  Level FlightAware Approximate
Mon 07:24:00 PM 41.0142 -75.0783 224° Southwest  Level FlightAware Approximate
Mon 07:25:00 PM 40.9939 -75.1039 223° Southwest  Level FlightAware Approximate
Mon 07:26:00 PM 40.9735 -75.1295 223° Southwest  Level FlightAware Approximate
Mon 07:27:00 PM 40.9531 -75.1550 223° Southwest  Level FlightAware Approximate
Mon 07:28:00 PM 40.9328 -75.1806 223° Southwest  Level FlightAware Approximate
Mon 07:29:00 PM 40.9124 -75.2061 223° Southwest  Level FlightAware Approximate
Mon 07:30:00 PM 40.8920 -75.2316 223° Southwest  Level FlightAware Approximate
Mon 07:31:00 PM 40.8716 -75.2571 223° Southwest  Level FlightAware Approximate
Mon 07:32:00 PM 40.8512 -75.2826 223° Southwest  Level FlightAware Approximate
Mon 07:33:00 PM 40.8308 -75.3080 223° Southwest  Level FlightAware Approximate
Mon 07:34:00 PM 40.8104 -75.3335 223° Southwest  Level FlightAware Approximate
Mon 07:35:00 PM 40.7900 -75.3589 223° Southwest  Level FlightAware Approximate
Mon 07:36:00 PM 40.7695 -75.3843 223° Southwest  Level FlightAware Approximate
Mon 07:37:00 PM 40.7491 -75.4097 223° Southwest  Level FlightAware Approximate
Mon 07:38:00 PM 40.7287 -75.4351 223° Southwest  Level FlightAware Approximate
Mon 07:39:00 PM 40.7092 -75.4617 230° Southwest  Level FlightAware Approximate
Mon 07:40:00 PM 40.6911 -75.4899 230° Southwest  Level FlightAware Approximate
Mon 07:41:00 PM 40.6730 -75.5182 230° Southwest  Level FlightAware Approximate
Mon 07:42:00 PM 40.6548 -75.5464 230° Southwest  Level FlightAware Approximate
Mon 07:43:00 PM 40.6367 -75.5746 230° Southwest  Level FlightAware Approximate
Mon 07:44:00 PM 40.6185 -75.6028 230° Southwest  Level FlightAware Approximate
Mon 07:45:00 PM 40.6004 -75.6310 230° Southwest  Level FlightAware Approximate
Mon 07:46:00 PM 40.5822 -75.6592 230° Southwest  Level FlightAware Approximate
Mon 07:47:00 PM 40.5639 -75.6872 227° Southwest  Level FlightAware Approximate
Mon 07:48:00 PM 40.5447 -75.7141 227° Southwest  Level FlightAware Approximate
Mon 07:49:00 PM 40.5255 -75.7410 227° Southwest  Level FlightAware Approximate
Mon 07:50:00 PM 40.5063 -75.7679 227° Southwest  Level FlightAware Approximate
Mon 07:51:00 PM 40.4870 -75.7948 227° Southwest  Level FlightAware Approximate
Mon 07:52:00 PM 40.4672 -75.8208 224° Southwest  Level FlightAware Approximate
Mon 07:53:00 PM 40.4471 -75.8466 224° Southwest  Level FlightAware Approximate
Mon 07:54:00 PM 40.4270 -75.8723 224° Southwest  Level FlightAware Approximate
Mon 07:55:00 PM 40.4069 -75.8981 224° Southwest  Level FlightAware Approximate
Mon 07:56:00 PM 40.3868 -75.9238 224° Southwest  Level FlightAware Approximate
Mon 07:57:00 PM 40.3668 -75.9495 224° Southwest  Level FlightAware Approximate
Mon 07:58:00 PM 40.3467 -75.9752 224° Southwest  Level FlightAware Approximate
Mon 07:59:00 PM 40.3266 -76.0009 224° Southwest  Level FlightAware Approximate
Mon 08:00:00 PM 40.3065 -76.0266 224° Southwest  Level FlightAware Approximate
Mon 08:01:00 PM 40.2864 -76.0523 224° Southwest  Level FlightAware Approximate
Mon 08:02:00 PM 40.2662 -76.0779 224° Southwest  Level FlightAware Approximate
Mon 08:03:00 PM 40.2460 -76.1037 224° Southwest  Level FlightAware Approximate
Mon 08:04:00 PM 40.2257 -76.1295 224° Southwest  Level FlightAware Approximate
Mon 08:05:00 PM 40.2055 -76.1552 224° Southwest  Level FlightAware Approximate
Mon 08:06:00 PM 40.1852 -76.1809 224° Southwest  Level FlightAware Approximate
Mon 08:07:00 PM 40.1665 -76.2086 229° Southwest  Level FlightAware Approximate
Mon 08:08:00 PM 40.1479 -76.2365 229° Southwest  Level FlightAware Approximate
Mon 08:09:00 PM 40.1294 -76.2643 229° Southwest  Level FlightAware Approximate
Mon 08:10:00 PM 40.1078 -76.2833 180° South  Level FlightAware Approximate
Mon 08:11:00 PM 40.0795 -76.2833 180° South  Level FlightAware Approximate
Mon 08:12:00 PM 40.0513 -76.2833 180° South  Level FlightAware Approximate
Mon 08:13:00 PM 40.0231 -76.2833 180° South  Level FlightAware Approximate
Mon 08:13:06 PM 39.9333 -76.3833 180° South 125 144 3,800  Level Potomac TRACON
Mon 08:14:00 PM 39.9949 -76.2833 180° South  Level FlightAware Approximate
Mon 08:14:11 PM 39.9000 -76.4000 201° Southwest 119 137 3,800  Level Potomac TRACON
Mon 08:15:00 PM 39.9666 -76.2833 180° South  Level FlightAware Approximate
Mon 08:15:11 PM 39.8667 -76.4167 201° Southwest 103 119 3,800  Level Potomac TRACON
Mon 08:16:00 PM 39.9384 -76.2833 180° South  Level FlightAware Approximate
Mon 08:16:06 PM 39.8500 -76.4167 180° South 99 114 3,800  Level Potomac TRACON
Mon 08:17:00 PM 39.9101 -76.2833 180° South  Level FlightAware Approximate
Mon 08:17:06 PM 39.8167 -76.4333 201° Southwest 110 127 3,800  Level Potomac TRACON
Mon 08:18:00 PM 39.8819 -76.2833 180° South  Level FlightAware Approximate
Mon 08:18:06 PM 39.8000 -76.4500 218° Southwest 122 140 3,700  Level Potomac TRACON
Mon 08:20:00 PM 39.7476 -76.4726 198° South  Level FlightAware Approximate
Mon 08:21:12 PM 39.7333 -76.5500 198° South 117 135 3,800  Level Potomac TRACON
Mon 08:22:12 PM 39.7167 -76.5833 237° Southwest 115 132 3,800  Level Potomac TRACON
Mon 08:23:12 PM 39.7000 -76.6333 247° West 123 142 3,800  Level Potomac TRACON
Mon 08:24:12 PM 39.6667 -76.6667 218° Southwest 123 142 3,800  Level Potomac TRACON
Mon 08:25:13 PM 39.6500 -76.7000 237° Southwest 126 145 3,800  Level Potomac TRACON
Mon 08:26:13 PM 39.6333 -76.7333 237° Southwest 124 143 3,800  Level Potomac TRACON
Mon 08:27:07 PM 39.6167 -76.7667 237° Southwest 118 136 3,800 -34 Level Potomac TRACON
Mon 08:29:08 PM 39.5667 -76.8333 226° Southwest 113 130 3,700 -33 Descending Potomac TRACON
Mon 08:30:08 PM 39.5500 -76.8500 218° Southwest 115 132 3,700 50 Level Potomac TRACON
Mon 08:31:08 PM 39.5167 -76.8667 201° Southwest 108 124 3,800 50 Climbing Potomac TRACON
Mon 08:32:08 PM 39.5000 -76.9000 237° Southwest 114 131 3,800  Level Potomac TRACON
Mon 08:33:08 PM 39.4667 -76.9167 201° Southwest 116 133 3,800 -248 Level Potomac TRACON
Mon 08:34:09 PM 39.4500 -76.9333 218° Southwest 115 132 3,300 -496 Descending Potomac TRACON
Mon 08:35:09 PM 39.4167 -76.9667 218° Southwest 107 123 2,800 -250 Descending Potomac TRACON
Mon 08:36:09 PM 39.4000 -76.9833 218° Southwest 104 120 2,800 67 Level Potomac TRACON
Mon 08:38:09 PM 39.3500 -77.0333 218° Southwest 147 169 3,000  Climbing Potomac TRACON
Mon 08:39:09 PM 39.3167 -77.0333 180° South 88 101 2,800 -150 Descending Potomac TRACON
Mon 08:40:09 PM 39.3000 -77.0167 142° Southeast 86 99 2,700 -250 Descending Potomac TRACON
Mon 08:41:09 PM 39.2833 -77.0167 180° South 89 102 2,300 -267 Descending Potomac TRACON
Mon 08:43:09 PM 39.2333 -77.0000 166° South 87 100 1,900 -100 Descending Potomac TRACON
Mon 08:44:09 PM 39.2167 -76.9833 142° Southeast 87 100 2,000 100 Climbing Potomac TRACON
Mon 08:45:09 PM 39.1833 -76.9833 180° South 89 102 2,100 50 Climbing Potomac TRACON
Mon 08:46:09 PM 39.1667 -76.9667 142° Southeast 85 98 2,100 -250 Level Potomac TRACON
Mon 08:47:09 PM 39.1500 -76.9500 142° Southeast 75 86 1,600 -300 Descending Potomac TRACON
Mon 08:48:09 PM 39.1500 -76.9167 90° East 80 92 1,500 -50 Descending Potomac TRACON
Mon 08:49:09 PM 39.1333 -76.9000 142° Southeast 79 91 1,500 -33 Level Potomac TRACON
Mon 08:51:09 PM 39.1000 -76.8500 131° Southeast 84 97 1,400 -200 Descending Potomac TRACON
Mon 08:52:09 PM 39.1000 -76.8333 90° East 77 89 900 -400 Descending Potomac TRACON
Mon 08:53:09 PM 39.0833 -76.8000 123° Southeast 78 90 600 -300 Descending Potomac TRACON
Mon 08:55:00 PM 39.0854 -76.7594 134° Southeast  Level Estimated
Mon 09:02:00 PM 39.0854 -76.7594 134° Southeast  Level Estimated
Mon 09:03:00 PM 39.0854 -76.7594 134° Southeast  Level Estimated
Mon 09:04:00 PM 39.0854 -76.7594 134° Southeast  Level Estimated
Mon 09:05:00 PM 39.0854 -76.7594 134° Southeast  Level Estimated
Mon 09:06:00 PM 39.0854 -76.7594 134° Southeast  Level Estimated
Mon 09:07:00 PM 39.0854 -76.7594 134° Southeast  Level Estimated
Mon 09:08:00 PM 39.0854 -76.7594 134° Southeast  Level Estimated
Mon 09:09:00 PM 39.0854 -76.7594 134° Southeast  Level Estimated

Login

Don't have an account? Register now (free) for customized features, flight alerts, and more!